AirNav   TITAN Aviation Fuels
 
 365 users online  

30LS Rotorcraft Heliport
Broussard, Louisiana, USA

GOING TO BROUSSARD?


FAA INFORMATION EFFECTIVE 08 SEPTEMBER 2022

Location

FAA Identifier: 30LS
Lat/Long: 30-09-08.7200N 091-57-02.4200W
30-09.145333N 091-57.040333W
30.1524222,-91.9506722
(estimated)
Elevation: 31 ft. / 9 m (estimated)
Variation: 03E (1995)
From city: 1 mile SE of BROUSSARD, LA
Time zone: UTC -5 (UTC -6 during Standard Time)
Zip code: 70518

Heliport Operations

Heliport use: Private use. Permission required prior to landing
Control tower: no
ARTCC: HOUSTON CENTER
FSS: DE RIDDER FLIGHT SERVICE STATION
Attendance: UNATNDD
Segmented circle: no

Heliport Communications

WX ASOS at LFT (4 nm NW): 134.05 ((337)262-2757)
WX ASOS at ARA (8 nm SE): 133.325 (337-365-0128)
WX AWOS-3 at IYA (13 nm SW): 118.875 (337-892-0526)

Nearby radio navigation aids

VOR radial/distance  VOR name  Freq  Var
LFTr136/3.3LAFAYETTE VORTAC109.8003E
LLAr033/36.7WHITE LAKE VOR/DME114.9504E
LSUr234/39.4FIGHTING TIGER VORTAC116.5006E

 
NDB name  Hdg/Dist  Freq  Var  ID
LAFFS192/8.537503ELF .-.. ..-.
ABBEVILLE057/10.523002EBNZ -... -. --..
DURALDE132/35.526302EECY . -.-. -.--

Heliport Services

Runway Information

Helipad H1

Dimensions: 50 x 50 ft. / 15 x 15 m
Surface: concrete
Traffic pattern: leftleft

Heliport Ownership and Management from official FAA records

Ownership: Privately-owned
Owner: ROTORCRAFT LEASING CO LLC
430 N EOLA ROAD
BROUSSARD, LA 70518
Phone 318-837-6038
Manager: JASON MELANCON
430 N EOLA ROAD
BROUSSARD, LA 70518
Phone 318-837-6038

Additional Remarks

FOR CD CTC LAFAYETTE APCH AT 337-262-2729, WHEN APCH CLSD CTC HOUSTON ARTCC AT 281-230-5622.

Instrument Procedures

There are no published instrument procedures at 30LS.

Some nearby airports with instrument procedures:

KLFT - Lafayette Regional Airport/Paul Fournet Field (4 nm NW)
KARA - Acadiana Regional Airport (8 nm SE)
KIYA - Abbeville Chris Crusta Memorial Airport (13 nm SW)
KOPL - St Landry Parish Airport-Ahart Field (26 nm N)
4R7 - Eunice Airport (31 nm NW)
 
Loc | Ops | Rwys | IFR | FBO | Links
Com | Nav | Svcs | Stats | Notes
Area around 30LS (Rotorcraft Heliport)
 
Road maps at: MapQuest Bing Google
 
Aerial photo
No photo
 
Sectional chart

 
Airport distance calculator
Flying to Rotorcraft Heliport? Find the distance to fly.

From to 30LS

Sunrise and sunset
Times for 02-Oct-2022
 Local
(UTC-5)
 Zulu
(UTC)
Morning civil twilight06:3911:39
Sunrise07:0312:03
Sunset18:5223:52
Evening civil twilight19:1500:15

Current date and time
Zulu (UTC)  02-Oct-2022 08:47:37
Local (UTC-5)  02-Oct-2022 03:47:37
 
METAR
KLFT 
4nm NW 
020753Z AUTO 00000KT 10SM CLR 13/11 A3005 RMK AO2 SLP176 T01280106
KARA 
8nm SE 
020753Z AUTO 35006KT 10SM CLR 14/10 A3004 RMK AO2 SLP172 T01440100 $
K0R3 
13nm SW 
118.875
No observation available
KIYA 
13nm SW 
020835Z AUTO 00000KT 10SM CLR 11/08 A3005 RMK AO2 T01070078
TAF
KLFT 
4nm NW 
020520Z 0206/0306 VRB04KT P6SM SKC FM021500 01007KT P6SM SKC FM030100 VRB03KT P6SM SKC
KARA 
8nm SE 
020520Z 0206/0306 VRB03KT P6SM SKC FM021500 01007KT P6SM SKC FM030100 VRB03KT P6SM SKC
NOTAMs
Click for the latest NOTAMs
NOTAMs are issued by the DoD/FAA and will open in a separate window not controlled by AirNav.

 

 
 

Would you like to see your business listed on this page?

 If your business provides an interesting product or service to pilots, flight crews, aircraft, or users of the Rotorcraft Heliport, you should consider listing it here.  To start the listing process, click on the button below
 
Add a business
 

Other Pages about Rotorcraft Heliport

Update a link
 
Copyright © AirNav, LLC. All rights reserved. Privacy Policy  Contact